ENTC Airport Information

Runway Information
Runway 01 Length 7848 ft width 148 ft
Elevation 25 ft Threshold 0 ft Heading 13
Runway 19 Length 7848 ft Width 148 ft
Elevation 13 ft Threshold 1286 ft Heading 193
Airport Frequencies
Type APP Name APP Frequency 123.75 MHZ
Type ATIS Name ATIS Frequency 126.125 MHZ
Type TWR Name TWR Frequency 118.3 MHZ
Airport Navaids
Type NDB Name Kobbe Frequency 283 KHZ
Type NDB Name Kvalsund Frequency 362 KHZ
Type NDB Name Lanes Frequency 268 KHZ
Type VOR-DME Name Tromso Frequency 113800 KHZ
Airport Weather Information & NOTAM
ADDS - METARS form results

(0956 UTC 23 July 2018)
 
METAR text: ENTC 230950Z 27004KT 9999 FEW010 BKN050 15/12 Q1004 NOSIG RMK WIND 2600FT 19020KT
Conditions at: ENTC (TROMSO/LANGNES , NO) observed 0950 UTC 23 July 2018
Temperature: 15.0°C (59°F)
Dewpoint: 12.0°C (54°F) [RH = 82%]
Pressure (altimeter): 29.65 inches Hg (1004.0 mb)
Winds: from the W (270 degrees) at 5 MPH (4 knots; 2.1 m/s)
Visibility: 6 or more miles (10+ km)
Ceiling: 5000 feet AGL
Clouds: few clouds at 1000 feet AGL
broken clouds at 5000 feet AGL
Weather: no significant weather observed at this time

METAR text: ENTC 230920Z 27005KT 9999 FEW010 BKN050 14/12 Q1004 NOSIG RMK WIND 2600FT 18020KT
Conditions at: ENTC (TROMSO/LANGNES , NO) observed 0920 UTC 23 July 2018
Temperature: 14.0°C (57°F)
Dewpoint: 12.0°C (54°F) [RH = 88%]
Pressure (altimeter): 29.65 inches Hg (1004.0 mb)
Winds: from the W (270 degrees) at 6 MPH (5 knots; 2.6 m/s)
Visibility: 6 or more miles (10+ km)
Ceiling: 5000 feet AGL
Clouds: few clouds at 1000 feet AGL
broken clouds at 5000 feet AGL
Weather: no significant weather observed at this time